Time;durP1;ratioP1;P1;durP2;ratioP2;P2;SDS_P1;SDS_P2;PMS_P1;PMS_P2;Temp;Humidity;BMP_temperature;BMP_pressure;BME280_temperature;BME280_humidity;BME280_pressure;Samples;Min_cycle;Max_cycle;Signal;HPM_P1;HPM_P2
2024/03/29 00:02:08;;;;;;;1.02;0.45;;;;;;;-144.12;100.00;72078.50;5032813;28;20088;-68
2024/03/29 00:04:33;;;;;;;0.50;0.45;;;;;;;-144.12;100.00;72078.50;5050330;28;20481;-67
2024/03/29 00:06:59;;;;;;;0.50;0.50;;;;;;;-144.12;100.00;72078.50;5034120;28;20489;-67
2024/03/29 00:09:25;;;;;;;1.77;0.80;;;;;;;-144.12;100.00;72078.50;5030449;28;20033;-70
2024/03/29 00:11:50;;;;;;;0.55;0.40;;;;;;;-144.12;100.00;72078.50;5014859;28;20474;-67
2024/03/29 00:14:16;;;;;;;0.50;0.40;;;;;;;-144.12;100.00;72078.50;5047877;28;20534;-68
2024/03/29 00:16:42;;;;;;;0.80;0.63;;;;;;;-144.12;100.00;72078.50;5050848;28;20017;-68
2024/03/29 00:19:08;;;;;;;2.33;0.57;;;;;;;-144.12;100.00;72078.50;5029620;28;20029;-68
2024/03/29 00:21:34;;;;;;;0.57;0.57;;;;;;;-144.12;100.00;72078.50;5059565;28;20052;-68
2024/03/29 00:23:59;;;;;;;1.27;0.77;;;;;;;-144.12;100.00;72078.50;5030001;28;20072;-68
2024/03/29 00:26:25;;;;;;;2.72;0.65;;;;;;;-144.12;100.00;72078.50;5030186;28;20655;-68
2024/03/29 00:28:50;;;;;;;0.75;0.52;;;;;;;-144.12;100.00;72078.50;5042841;28;20041;-68
2024/03/29 00:31:16;;;;;;;0.88;0.52;;;;;;;-144.12;100.00;72078.50;5012289;28;20503;-67
2024/03/29 00:33:42;;;;;;;4.60;0.70;;;;;;;-144.12;100.00;72078.50;5030749;28;20414;-68
2024/03/29 00:36:08;;;;;;;1.17;0.68;;;;;;;-144.12;100.00;72078.50;5031205;28;20025;-68
2024/03/29 00:38:34;;;;;;;1.17;0.70;;;;;;;-144.12;100.00;72078.50;5064700;28;20072;-68
2024/03/29 00:40:59;;;;;;;0.63;0.60;;;;;;;-144.12;100.00;72078.50;5042718;28;20031;-68
2024/03/29 00:43:25;;;;;;;1.20;0.50;;;;;;;-144.12;100.00;72078.50;5049287;28;20430;-68
2024/03/29 00:45:53;;;;;;;2.20;0.85;;;;;;;-144.12;100.00;72078.50;5014867;28;20402;-68
2024/03/29 00:48:20;;;;;;;0.38;0.38;;;;;;;-144.12;100.00;72078.50;5033061;28;20086;-68
2024/03/29 00:50:46;;;;;;;0.43;0.40;;;;;;;-144.12;100.00;72078.50;5036965;28;20025;-68
2024/03/29 00:53:11;;;;;;;6.63;0.80;;;;;;;-144.12;100.00;72078.50;5031672;28;20029;-68
2024/03/29 00:55:37;;;;;;;0.90;0.55;;;;;;;-144.12;100.00;72078.50;5043943;28;20033;-68
2024/03/29 00:58:03;;;;;;;2.20;0.80;;;;;;;-144.12;100.00;72078.50;5048108;28;20030;-68
2024/03/29 01:00:28;;;;;;;0.30;0.30;;;;;;;-144.12;100.00;72078.50;5030397;28;20082;-67
2024/03/29 01:02:54;;;;;;;0.38;0.38;;;;;;;-144.12;100.00;72078.50;5046057;28;20040;-69
2024/03/29 01:05:19;;;;;;;1.25;0.73;;;;;;;-144.12;100.00;72078.50;5049504;28;20028;-68
2024/03/29 01:07:45;;;;;;;3.42;0.52;;;;;;;-144.12;100.00;72078.50;5013197;28;20029;-67
2024/03/29 01:10:10;;;;;;;1.85;0.45;;;;;;;-144.12;100.00;72078.50;5028498;28;20136;-67
2024/03/29 01:12:36;;;;;;;0.30;0.30;;;;;;;-144.12;100.00;72078.50;5028203;28;20044;-68
2024/03/29 01:15:03;;;;;;;2.95;0.40;;;;;;;-144.12;100.00;72078.50;5030629;28;20038;-67
2024/03/29 01:17:29;;;;;;;0.55;0.40;;;;;;;-144.12;100.00;72078.50;5048034;28;20557;-68
2024/03/29 01:19:55;;;;;;;0.28;0.28;;;;;;;-144.12;100.00;72078.50;5049955;28;20486;-68
2024/03/29 01:22:21;;;;;;;0.50;0.40;;;;;;;-144.12;100.00;72078.50;5030130;28;20041;-68
2024/03/29 01:24:47;;;;;;;1.25;0.70;;;;;;;-144.12;100.00;72078.50;5032375;28;20031;-68
2024/03/29 01:27:13;;;;;;;0.50;0.50;;;;;;;-144.12;100.00;72078.50;5032754;28;20116;-68
2024/03/29 01:29:38;;;;;;;0.40;0.40;;;;;;;-144.12;100.00;72078.50;5044111;28;20706;-68
2024/03/29 01:32:04;;;;;;;1.17;0.70;;;;;;;-144.12;100.00;72078.50;5046408;28;20036;-68
2024/03/29 01:34:30;;;;;;;0.40;0.40;;;;;;;-144.12;100.00;72078.50;5067618;28;20055;-67
2024/03/29 01:36:56;;;;;;;1.05;0.40;;;;;;;-144.12;100.00;72078.50;5056798;28;20049;-68
2024/03/29 01:39:26;;;;;;;7.15;0.60;;;;;;;-144.12;100.00;72078.50;5008470;28;20456;-68
2024/03/29 01:41:52;;;;;;;0.45;0.45;;;;;;;-144.12;100.00;72078.50;5025991;28;20029;-68
2024/03/29 01:44:18;;;;;;;3.47;0.50;;;;;;;-144.12;100.00;72078.50;5033539;28;20033;-67
2024/03/29 01:46:44;;;;;;;0.38;0.38;;;;;;;-144.12;100.00;72078.50;5051223;28;20033;-68
2024/03/29 01:49:11;;;;;;;0.50;0.50;;;;;;;-144.12;100.00;72078.50;5035311;28;20079;-68
2024/03/29 01:51:40;;;;;;;0.75;0.38;;;;;;;-144.12;100.00;72078.50;5035007;28;20028;-67
2024/03/29 01:54:09;;;;;;;0.35;0.35;;;;;;;-144.12;100.00;72078.50;5046968;28;20406;-69
2024/03/29 01:56:35;;;;;;;0.40;0.40;;;;;;;-144.12;100.00;72078.50;5029941;28;20030;-68
2024/03/29 01:59:04;;;;;;;0.30;0.30;;;;;;;-144.12;100.00;72078.50;5051169;28;20041;-68
2024/03/29 02:01:30;;;;;;;0.45;0.38;;;;;;;-144.12;100.00;72078.50;5047793;28;20036;-67
2024/03/29 02:03:56;;;;;;;1.92;0.60;;;;;;;-144.12;100.00;72078.50;5027731;28;20037;-67
2024/03/29 02:06:22;;;;;;;1.05;0.43;;;;;;;-144.12;100.00;72078.50;5042236;28;20405;-67
2024/03/29 02:08:51;;;;;;;0.40;0.40;;;;;;;-144.12;100.00;72078.50;5028846;28;20048;-67
2024/03/29 02:11:17;;;;;;;0.52;0.47;;;;;;;-144.12;100.00;72078.50;5025368;28;20537;-68
2024/03/29 02:13:44;;;;;;;0.80;0.32;;;;;;;-144.12;100.00;72078.50;5024200;28;20049;-68
2024/03/29 02:16:10;;;;;;;0.20;0.20;;;;;;;-144.12;100.00;72078.50;5024236;28;20037;-68
2024/03/29 02:18:36;;;;;;;0.65;0.30;;;;;;;-144.12;100.00;72078.50;5033093;28;20397;-68
2024/03/29 02:21:02;;;;;;;0.90;0.50;;;;;;;-144.12;100.00;72078.50;5011279;28;20033;-67
2024/03/29 02:23:32;;;;;;;3.72;0.47;;;;;;;-144.12;100.00;72078.50;5015972;28;20033;-68
2024/03/29 02:25:58;;;;;;;0.30;0.30;;;;;;;-144.12;100.00;72078.50;5013891;28;20042;-67
2024/03/29 02:28:24;;;;;;;0.38;0.32;;;;;;;-144.12;100.00;72078.50;5028610;28;20024;-67
2024/03/29 02:30:51;;;;;;;2.25;0.55;;;;;;;-144.12;100.00;72078.50;5027824;28;20116;-68
2024/03/29 02:33:16;;;;;;;3.90;0.50;;;;;;;-144.12;100.00;72078.50;5026011;28;20033;-67
2024/03/29 02:35:42;;;;;;;0.38;0.38;;;;;;;-144.12;100.00;72078.50;5027847;28;20022;-68
2024/03/29 02:38:07;;;;;;;0.30;0.30;;;;;;;-144.12;100.00;72078.50;5031640;28;20033;-68
2024/03/29 02:40:33;;;;;;;0.30;0.30;;;;;;;-144.12;100.00;72078.50;5030147;28;20048;-66
2024/03/29 02:42:59;;;;;;;0.55;0.50;;;;;;;-144.12;100.00;72078.50;5032827;28;20032;-70
2024/03/29 02:45:24;;;;;;;3.75;0.43;;;;;;;-144.12;100.00;72078.50;5026730;28;20099;-67
2024/03/29 02:47:50;;;;;;;0.47;0.40;;;;;;;-144.12;100.00;72078.50;5007829;28;20167;-67
2024/03/29 02:50:16;;;;;;;0.38;0.38;;;;;;;-144.12;100.00;72078.50;5007636;28;20038;-68
2024/03/29 02:52:42;;;;;;;1.23;0.95;;;;;;;-144.12;100.00;72078.50;5026563;28;20091;-67
2024/03/29 02:55:10;;;;;;;0.50;0.50;;;;;;;-144.12;100.00;72078.50;5031567;28;20051;-67
2024/03/29 02:57:39;;;;;;;1.10;0.52;;;;;;;-144.12;100.00;72078.50;5017953;28;20032;-68
2024/03/29 03:00:06;;;;;;;0.30;0.30;;;;;;;-144.12;100.00;72078.50;5034261;28;20055;-68
2024/03/29 03:02:32;;;;;;;0.57;0.57;;;;;;;-144.12;100.00;72078.50;5063751;28;20080;-67
2024/03/29 03:04:59;;;;;;;2.30;0.50;;;;;;;-144.12;100.00;72078.50;5031821;28;20628;-67
2024/03/29 03:12:53;;;;;;;0.30;0.30;;;;;;;-144.12;100.00;72078.50;5028175;28;20041;-69
2024/03/29 03:15:20;;;;;;;0.20;0.20;;;;;;;-144.12;100.00;72078.50;5024394;28;20094;-67
2024/03/29 03:17:45;;;;;;;0.52;0.40;;;;;;;-144.12;100.00;72078.50;5060109;28;20026;-67
2024/03/29 03:20:13;;;;;;;0.68;0.40;;;;;;;-144.12;100.00;72078.50;5038285;28;20183;-68
2024/03/29 03:22:39;;;;;;;0.45;0.30;;;;;;;-144.12;100.00;72078.50;5061170;28;20538;-68
2024/03/29 03:25:05;;;;;;;0.20;0.20;;;;;;;-144.12;100.00;72078.50;5030070;28;20039;-67
2024/03/29 03:27:30;;;;;;;0.60;0.40;;;;;;;-144.12;100.00;72078.50;5045698;28;20261;-68
2024/03/29 03:29:56;;;;;;;0.38;0.38;;;;;;;-144.12;100.00;72078.50;5048730;28;20030;-68
2024/03/29 03:32:21;;;;;;;0.68;0.45;;;;;;;-144.12;100.00;72078.50;5030065;28;20110;-68
2024/03/29 03:34:47;;;;;;;0.38;0.35;;;;;;;-144.12;100.00;72078.50;5040886;28;20037;-69
2024/03/29 03:37:13;;;;;;;0.50;0.40;;;;;;;-144.12;100.00;72078.50;5027139;28;20037;-67
2024/03/29 03:39:38;;;;;;;0.55;0.40;;;;;;;-144.12;100.00;72078.50;5027213;28;20035;-69
2024/03/29 03:42:04;;;;;;;0.70;0.28;;;;;;;-144.12;100.00;72078.50;5032335;28;20045;-67
2024/03/29 03:44:30;;;;;;;0.30;0.30;;;;;;;-144.12;100.00;72078.50;5043503;28;20029;-68
2024/03/29 03:46:55;;;;;;;3.65;0.55;;;;;;;-144.12;100.00;72078.50;5027151;28;20021;-69
2024/03/29 03:49:21;;;;;;;0.50;0.40;;;;;;;-144.12;100.00;72078.50;5024682;28;20112;-68
2024/03/29 03:51:47;;;;;;;2.05;0.35;;;;;;;-144.12;100.00;72078.50;5039127;28;20084;-68
2024/03/29 03:54:12;;;;;;;0.17;0.17;;;;;;;-144.12;100.00;72078.50;5045053;28;20079;-68
2024/03/29 03:56:38;;;;;;;0.20;0.20;;;;;;;-144.12;100.00;72078.50;5029066;28;20030;-68
2024/03/29 03:59:03;;;;;;;1.48;1.13;;;;;;;-144.12;100.00;72078.50;5024852;28;20041;-68
2024/03/29 04:01:29;;;;;;;1.80;0.50;;;;;;;-144.12;100.00;72078.50;5043282;28;20491;-68
2024/03/29 04:03:54;;;;;;;0.30;0.30;;;;;;;-144.12;100.00;72078.50;5022724;28;20479;-68
2024/03/29 04:06:20;;;;;;;0.20;0.20;;;;;;;-144.12;100.00;72078.50;5043838;28;20045;-66
2024/03/29 04:08:46;;;;;;;3.05;0.60;;;;;;;-144.12;100.00;72078.50;5027752;28;20533;-67
2024/03/29 04:11:12;;;;;;;1.20;0.25;;;;;;;-144.12;100.00;72078.50;5039777;28;20073;-67
2024/03/29 04:13:38;;;;;;;0.32;0.32;;;;;;;-144.12;100.00;72078.50;5025594;28;20068;-67
2024/03/29 04:16:06;;;;;;;0.47;0.30;;;;;;;-144.12;100.00;72078.50;5032594;28;20080;-66
2024/03/29 04:18:34;;;;;;;0.90;0.75;;;;;;;-144.12;100.00;72078.50;5060385;28;20038;-67
2024/03/29 04:21:03;;;;;;;0.50;0.50;;;;;;;-144.12;100.00;72078.50;5030672;28;20029;-67
2024/03/29 04:23:29;;;;;;;1.00;0.88;;;;;;;-144.12;100.00;72078.50;5033158;28;20053;-68
2024/03/29 04:25:56;;;;;;;0.35;0.30;;;;;;;-144.12;100.00;72078.50;5015685;28;20067;-68
2024/03/29 04:28:23;;;;;;;0.93;0.38;;;;;;;-144.12;100.00;72078.50;5025494;28;20053;-70
2024/03/29 04:30:52;;;;;;;1.55;0.60;;;;;;;-144.12;100.00;72078.50;5030234;28;20083;-68
2024/03/29 04:33:18;;;;;;;0.40;0.40;;;;;;;-144.12;100.00;72078.50;5031331;28;20044;-68
2024/03/29 04:35:55;;;;;;;0.30;0.30;;;;;;;-144.12;100.00;72078.50;5028483;28;20030;-68
2024/03/29 04:38:21;;;;;;;2.58;0.60;;;;;;;-144.12;100.00;72078.50;5046369;28;20030;-68
2024/03/29 04:40:50;;;;;;;0.30;0.30;;;;;;;-144.12;100.00;72078.50;5011502;28;20022;-68
2024/03/29 04:43:16;;;;;;;2.35;0.50;;;;;;;-144.12;100.00;72078.50;5031917;28;20044;-69
2024/03/29 04:45:45;;;;;;;0.47;0.30;;;;;;;-144.12;100.00;72078.50;5045123;28;20467;-68
2024/03/29 04:48:11;;;;;;;0.65;0.50;;;;;;;-144.12;100.00;72078.50;5030803;28;20025;-68
2024/03/29 04:50:37;;;;;;;0.40;0.40;;;;;;;-144.12;100.00;72078.50;5029740;28;20113;-68
2024/03/29 04:53:03;;;;;;;0.35;0.30;;;;;;;-144.12;100.00;72078.50;5043407;28;20488;-68
2024/03/29 04:55:28;;;;;;;3.83;0.50;;;;;;;-144.12;100.00;72078.50;5038178;28;20013;-67
2024/03/29 04:57:54;;;;;;;0.32;0.32;;;;;;;-144.12;100.00;72078.50;5010196;28;20030;-67
2024/03/29 05:00:19;;;;;;;0.65;0.45;;;;;;;-144.12;100.00;72078.50;5032145;28;20125;-67
2024/03/29 05:02:45;;;;;;;0.73;0.35;;;;;;;-144.12;100.00;72078.50;5031350;28;20029;-67
2024/03/29 05:05:10;;;;;;;3.70;0.30;;;;;;;-144.12;100.00;72078.50;5029161;28;20770;-68
2024/03/29 05:07:36;;;;;;;0.40;0.40;;;;;;;-144.12;100.00;72078.50;5031278;28;20509;-68
2024/03/29 05:10:06;;;;;;;1.95;0.38;;;;;;;-144.12;100.00;72078.50;5045717;28;20041;-68
2024/03/29 05:12:32;;;;;;;0.43;0.30;;;;;;;-144.12;100.00;72078.50;5032626;28;20117;-68
2024/03/29 05:14:58;;;;;;;0.95;0.40;;;;;;;-144.12;100.00;72078.50;5026591;28;20471;-67
2024/03/29 05:17:26;;;;;;;0.30;0.30;;;;;;;-144.12;100.00;72078.50;5033712;28;20102;-68
2024/03/29 05:19:56;;;;;;;0.63;0.60;;;;;;;-144.12;100.00;72078.50;5031704;28;20041;-67
2024/03/29 05:22:22;;;;;;;0.98;0.47;;;;;;;-144.12;100.00;72078.50;5027254;28;20033;-68
2024/03/29 05:24:47;;;;;;;0.40;0.40;;;;;;;-144.12;100.00;72078.50;5031564;28;20491;-68
2024/03/29 05:27:13;;;;;;;0.32;0.28;;;;;;;-144.12;100.00;72078.50;5009038;28;20044;-70
2024/03/29 05:29:39;;;;;;;0.63;0.40;;;;;;;-144.12;100.00;72078.50;5031767;28;20029;-72
2024/03/29 05:32:07;;;;;;;1.75;0.63;;;;;;;-144.12;100.00;72078.50;5031547;28;20190;-68
2024/03/29 05:34:33;;;;;;;0.82;0.28;;;;;;;-144.12;100.00;72078.50;5061640;28;20029;-71
2024/03/29 05:36:59;;;;;;;0.40;0.40;;;;;;;-144.12;100.00;72078.50;5030809;28;20043;-69
2024/03/29 05:39:24;;;;;;;0.50;0.50;;;;;;;-144.12;100.00;72078.50;5047423;28;20406;-68
2024/03/29 05:41:50;;;;;;;0.80;0.80;;;;;;;-144.12;100.00;72078.50;5028230;28;20028;-68
2024/03/29 05:44:17;;;;;;;0.47;0.47;;;;;;;-144.12;100.00;72078.50;5024062;28;20581;-68
2024/03/29 05:46:42;;;;;;;0.40;0.40;;;;;;;-144.12;100.00;72078.50;5027204;28;20107;-69
2024/03/29 05:49:08;;;;;;;1.23;0.70;;;;;;;-144.12;100.00;72078.50;5045997;28;20061;-68
2024/03/29 05:51:34;;;;;;;0.40;0.30;;;;;;;-144.12;100.00;72078.50;5027411;28;20033;-69
2024/03/29 05:54:00;;;;;;;5.28;0.55;;;;;;;-144.12;100.00;72078.50;5030979;28;20025;-68
2024/03/29 05:56:25;;;;;;;0.70;0.40;;;;;;;-144.12;100.00;72078.50;5042581;28;20037;-68
2024/03/29 05:58:52;;;;;;;0.55;0.55;;;;;;;-144.12;100.00;72078.50;5032670;28;20034;-68
2024/03/29 06:01:18;;;;;;;2.50;0.30;;;;;;;-144.12;100.00;72078.50;5042455;28;20026;-68
2024/03/29 06:03:43;;;;;;;0.45;0.30;;;;;;;-144.12;100.00;72078.50;5011801;28;20029;-69
2024/03/29 06:06:17;;;;;;;3.97;0.45;;;;;;;-144.12;100.00;72078.50;5044346;28;20084;-69
2024/03/29 06:08:43;;;;;;;0.30;0.30;;;;;;;-144.12;100.00;72078.50;5044219;28;20036;-68
2024/03/29 06:11:08;;;;;;;0.25;0.25;;;;;;;-144.12;100.00;72078.50;5043825;28;20424;-69
2024/03/29 06:19:01;;;;;;;0.63;0.32;;;;;;;-144.12;100.00;72078.50;5060094;28;20033;-68
2024/03/29 06:21:27;;;;;;;0.40;0.40;;;;;;;-144.12;100.00;72078.50;5030672;28;20495;-68
2024/03/29 06:23:52;;;;;;;0.40;0.40;;;;;;;-144.12;100.00;72078.50;5014774;28;20067;-69
2024/03/29 06:26:18;;;;;;;0.40;0.40;;;;;;;-144.12;100.00;72078.50;5044617;28;20033;-68
2024/03/29 06:28:44;;;;;;;0.32;0.32;;;;;;;-144.12;100.00;72078.50;5029089;28;20152;-68
2024/03/29 06:31:09;;;;;;;1.08;0.60;;;;;;;-144.12;100.00;72078.50;5048346;28;20486;-68
2024/03/29 06:33:34;;;;;;;0.80;0.50;;;;;;;-144.12;100.00;72078.50;5046561;28;20033;-68
2024/03/29 06:36:00;;;;;;;0.65;0.30;;;;;;;-144.12;100.00;72078.50;5028774;28;20029;-68
2024/03/29 06:38:26;;;;;;;0.93;0.50;;;;;;;-144.12;100.00;72078.50;5032854;28;20029;-67
2024/03/29 06:40:51;;;;;;;0.95;0.55;;;;;;;-144.12;100.00;72078.50;5028716;28;20115;-68
2024/03/29 06:43:17;;;;;;;1.35;0.32;;;;;;;-144.12;100.00;72078.50;5029912;28;20124;-68
2024/03/29 06:45:45;;;;;;;0.25;0.25;;;;;;;-144.12;100.00;72078.50;5026142;28;20204;-70
2024/03/29 06:48:10;;;;;;;0.30;0.30;;;;;;;-144.12;100.00;72078.50;5043605;28;20480;-67
2024/03/29 06:50:38;;;;;;;0.50;0.50;;;;;;;-144.12;100.00;72078.50;5025654;28;20038;-68
2024/03/29 06:53:04;;;;;;;0.30;0.30;;;;;;;-144.12;100.00;72078.50;5016480;28;20053;-66
2024/03/29 06:55:30;;;;;;;0.77;0.47;;;;;;;-144.12;100.00;72078.50;5023626;28;20053;-67
2024/03/29 06:57:56;;;;;;;0.40;0.40;;;;;;;-144.12;100.00;72078.50;5044137;28;20039;-68
2024/03/29 07:00:22;;;;;;;0.60;0.40;;;;;;;-144.12;100.00;72078.50;5025130;28;20026;-67
2024/03/29 07:02:48;;;;;;;0.25;0.25;;;;;;;-144.12;100.00;72078.50;5019818;28;20100;-68
2024/03/29 07:05:13;;;;;;;0.20;0.20;;;;;;;-144.12;100.00;72078.50;5011212;28;20027;-68
2024/03/29 07:07:40;;;;;;;0.30;0.30;;;;;;;-144.12;100.00;72078.50;5024041;28;20033;-69
2024/03/29 07:10:06;;;;;;;1.00;0.20;;;;;;;-144.12;100.00;72078.50;5024579;28;20048;-68
2024/03/29 07:12:32;;;;;;;0.65;0.50;;;;;;;-144.12;100.00;72078.50;5044466;28;20060;-67
2024/03/29 07:14:57;;;;;;;0.30;0.30;;;;;;;-144.12;100.00;72078.50;5043789;28;20503;-68
2024/03/29 07:17:23;;;;;;;0.65;0.40;;;;;;;-144.12;100.00;72078.50;5045059;28;20477;-67
2024/03/29 07:19:48;;;;;;;1.65;0.40;;;;;;;11.02;71.13;98834.06;5030602;28;20482;-67
2024/03/29 07:22:14;;;;;;;0.20;0.20;;;;;;;10.97;71.96;98833.75;5024340;28;20041;-67
2024/03/29 07:24:40;;;;;;;0.65;0.40;;;;;;;11.09;71.93;98827.84;5041646;28;20029;-67
2024/03/29 07:27:06;;;;;;;1.10;0.50;;;;;;;11.14;71.81;98840.84;5023837;28;20044;-68
2024/03/29 07:29:33;;;;;;;3.83;0.55;;;;;;;11.29;71.89;98850.28;5024537;28;20029;-68
2024/03/29 07:32:00;;;;;;;0.30;0.30;;;;;;;11.20;71.81;98858.09;5023461;28;20044;-67
2024/03/29 07:34:26;;;;;;;0.45;0.40;;;;;;;11.21;71.42;98852.31;5039395;28;20060;-68
2024/03/29 07:36:52;;;;;;;1.13;0.30;;;;;;;11.33;71.61;98851.00;5055188;28;20065;-67
2024/03/29 07:39:17;;;;;;;0.50;0.30;;;;;;;11.43;71.42;98848.19;5024901;28;20510;-67
2024/03/29 07:41:43;;;;;;;3.13;0.30;;;;;;;11.46;71.44;98852.00;5046120;28;20044;-67
2024/03/29 07:44:09;;;;;;;0.30;0.30;;;;;;;11.51;70.55;98860.41;5028836;28;20125;-70
2024/03/29 07:46:40;;;;;;;0.20;0.20;;;;;;;11.58;70.07;98863.00;5025609;28;20901;-67
2024/03/29 07:49:05;;;;;;;0.50;0.50;;;;;;;11.56;70.65;98859.97;5042191;28;20022;-68
2024/03/29 07:51:31;;;;;;;0.38;0.35;;;;;;;11.62;70.22;98871.06;5039936;28;20029;-67
2024/03/29 07:53:56;;;;;;;0.40;0.40;;;;;;;11.61;71.09;98861.44;5026595;28;20067;-68
2024/03/29 07:56:24;;;;;;;0.40;0.40;;;;;;;11.63;71.68;98861.81;5033398;28;20041;-67
2024/03/29 07:58:53;;;;;;;0.73;0.60;;;;;;;11.69;70.55;98865.63;5032154;28;20034;-67
2024/03/29 08:01:20;;;;;;;2.40;0.63;;;;;;;11.68;70.93;98874.84;5047540;28;20406;-67
2024/03/29 08:03:45;;;;;;;0.55;0.40;;;;;;;11.58;72.16;98868.41;5023235;28;20372;-69
2024/03/29 08:06:11;;;;;;;1.33;0.30;;;;;;;11.69;70.94;98871.00;5036875;28;20048;-67
2024/03/29 08:08:36;;;;;;;2.60;0.38;;;;;;;11.47;72.61;98869.72;5045177;28;20113;-67
2024/03/29 08:11:02;;;;;;;2.05;1.45;;;;;;;11.66;72.37;98877.19;5044984;28;20134;-68
2024/03/29 08:13:28;;;;;;;0.20;0.20;;;;;;;-144.12;100.00;72078.50;5013769;28;20069;-67
2024/03/29 08:16:00;;;;;;;0.20;0.20;;;;;;;-144.12;100.00;72078.50;5045793;28;20036;-67
2024/03/29 08:18:27;;;;;;;0.55;0.30;;;;;;;-144.12;100.00;72078.50;5030343;28;20585;-67
2024/03/29 08:20:56;;;;;;;0.30;0.30;;;;;;;-144.12;100.00;72078.50;5038862;28;20049;-67
2024/03/29 08:23:22;;;;;;;0.20;0.20;;;;;;;-144.12;100.00;72078.50;5035688;28;20037;-68
2024/03/29 08:25:48;;;;;;;0.30;0.30;;;;;;;-144.12;100.00;72078.50;5062819;28;20413;-67
2024/03/29 08:28:14;;;;;;;0.17;0.17;;;;;;;-144.12;100.00;72078.50;5033311;28;20116;-67
2024/03/29 08:30:40;;;;;;;0.20;0.20;;;;;;;-144.12;100.00;72078.50;5043584;28;20525;-68
2024/03/29 08:33:07;;;;;;;0.17;0.17;;;;;;;-144.12;100.00;72078.50;5013099;28;20120;-67
2024/03/29 08:35:33;;;;;;;0.20;0.20;;;;;;;-144.12;100.00;72078.50;5032174;28;20120;-67
2024/03/29 08:37:59;;;;;;;0.20;0.20;;;;;;;-144.12;100.00;72078.50;5031326;28;20033;-67
2024/03/29 08:40:28;;;;;;;0.73;0.25;;;;;;;-144.12;100.00;72078.50;5029060;28;20033;-66
2024/03/29 08:42:55;;;;;;;0.30;0.30;;;;;;;-144.12;100.00;72078.50;5029532;28;20484;-67
2024/03/29 08:45:20;;;;;;;0.52;0.30;;;;;;;-144.12;100.00;72078.50;5032320;28;20040;-71
2024/03/29 08:47:46;;;;;;;0.52;0.40;;;;;;;-144.12;100.00;72078.50;5065601;28;20411;-68
2024/03/29 08:50:13;;;;;;;0.80;0.40;;;;;;;-144.12;100.00;72078.50;5031796;28;20110;-67
2024/03/29 08:52:39;;;;;;;1.15;0.40;;;;;;;-144.12;100.00;72078.50;5061749;28;20558;-67
2024/03/29 08:55:06;;;;;;;0.20;0.20;;;;;;;-144.12;100.00;72078.50;5047426;28;20156;-68
2024/03/29 08:57:32;;;;;;;1.65;0.50;;;;;;;-144.12;100.00;72078.50;5034001;28;20042;-68
2024/03/29 08:59:58;;;;;;;0.30;0.30;;;;;;;-144.12;100.00;72078.50;5032137;28;20045;-67
2024/03/29 09:02:23;;;;;;;1.05;0.38;;;;;;;-144.12;100.00;72078.50;5032205;28;20521;-66
2024/03/29 09:04:49;;;;;;;0.30;0.30;;;;;;;-144.12;100.00;72078.50;5030778;28;20052;-66
2024/03/29 09:07:15;;;;;;;0.30;0.30;;;;;;;-144.12;100.00;72078.50;5002122;28;20433;-67
2024/03/29 09:09:41;;;;;;;0.35;0.35;;;;;;;-144.12;100.00;72078.50;5046674;28;20041;-67
2024/03/29 09:12:08;;;;;;;3.38;0.45;;;;;;;-144.12;100.00;72078.50;5029165;28;20049;-67
2024/03/29 09:14:34;;;;;;;0.30;0.30;;;;;;;-144.12;100.00;72078.50;5031354;28;20020;-70
2024/03/29 09:17:01;;;;;;;0.30;0.30;;;;;;;-144.12;100.00;72078.50;5047017;28;20043;-67
2024/03/29 09:19:27;;;;;;;1.38;0.40;;;;;;;-144.12;100.00;72078.50;5012957;28;20034;-67
2024/03/29 09:21:52;;;;;;;0.88;0.30;;;;;;;-144.12;100.00;72078.50;5031581;28;20168;-68
2024/03/29 09:24:19;;;;;;;0.30;0.30;;;;;;;-144.12;100.00;72078.50;5040949;28;20025;-69
2024/03/29 09:26:44;;;;;;;0.40;0.40;;;;;;;-144.12;100.00;72078.50;5028759;28;20052;-68
2024/03/29 09:29:11;;;;;;;2.30;0.40;;;;;;;-144.12;100.00;72078.50;5050998;28;20061;-68
2024/03/29 09:31:37;;;;;;;0.35;0.35;;;;;;;-144.12;100.00;72078.50;5028335;28;20036;-68
2024/03/29 09:34:02;;;;;;;0.60;0.30;;;;;;;-144.12;100.00;72078.50;5047709;28;20029;-68
2024/03/29 09:36:28;;;;;;;0.75;0.50;;;;;;;-144.12;100.00;72078.50;5027977;28;20057;-67
2024/03/29 09:38:53;;;;;;;2.10;0.70;;;;;;;-144.12;100.00;72078.50;5028992;28;20120;-67
2024/03/29 09:41:19;;;;;;;0.50;0.50;;;;;;;-144.12;100.00;72078.50;5031412;28;20040;-67
2024/03/29 09:43:46;;;;;;;0.63;0.40;;;;;;;-144.12;100.00;72078.50;5033026;28;20029;-68
2024/03/29 09:46:16;;;;;;;0.85;0.60;;;;;;;-144.12;100.00;72078.50;5027874;28;20110;-67
2024/03/29 09:48:45;;;;;;;0.30;0.30;;;;;;;-144.12;100.00;72078.50;5029459;28;20037;-68
2024/03/29 09:51:13;;;;;;;3.25;0.40;;;;;;;-144.12;100.00;72078.50;5014236;28;20116;-68
2024/03/29 09:53:41;;;;;;;0.90;0.30;;;;;;;-144.12;100.00;72078.50;5047023;28;20120;-68
2024/03/29 09:56:07;;;;;;;0.20;0.20;;;;;;;-144.12;100.00;72078.50;5073134;28;20049;-68
2024/03/29 09:58:34;;;;;;;0.25;0.17;;;;;;;-144.12;100.00;72078.50;5015881;28;20419;-67
2024/03/29 10:01:02;;;;;;;1.90;0.40;;;;;;;-144.12;100.00;72078.50;5034304;28;20095;-67
2024/03/29 10:03:30;;;;;;;0.20;0.20;;;;;;;-144.12;100.00;72078.50;5012131;28;20037;-67
2024/03/29 10:06:00;;;;;;;0.25;0.25;;;;;;;-144.12;100.00;72078.50;5015788;28;20091;-67
2024/03/29 10:08:30;;;;;;;3.67;0.50;;;;;;;-144.12;100.00;72078.50;5050831;28;20037;-67
2024/03/29 10:10:57;;;;;;;1.02;0.30;;;;;;;-144.12;100.00;72078.50;5041575;28;20040;-68
2024/03/29 10:13:23;;;;;;;0.98;0.60;;;;;;;-144.12;100.00;72078.50;5029426;28;20414;-66
2024/03/29 10:15:56;;;;;;;0.13;0.13;;;;;;;-144.12;100.00;72078.50;5062276;28;20036;-68
2024/03/29 10:18:23;;;;;;;0.30;0.30;;;;;;;-144.12;100.00;72078.50;5042156;28;20160;-68
2024/03/29 10:21:03;;;;;;;0.32;0.22;;;;;;;-144.12;100.00;72078.50;5060679;28;20029;-68
2024/03/29 10:23:30;;;;;;;0.55;0.30;;;;;;;-144.12;100.00;72078.50;5027901;28;20116;-67
2024/03/29 10:25:55;;;;;;;0.52;0.45;;;;;;;-144.12;100.00;72078.50;5027581;28;20045;-68
2024/03/29 10:28:21;;;;;;;1.08;0.40;;;;;;;-144.12;100.00;72078.50;5012582;28;20115;-68
2024/03/29 10:30:48;;;;;;;0.73;0.60;;;;;;;-144.12;100.00;72078.50;5042383;28;20131;-68
2024/03/29 10:33:15;;;;;;;0.73;0.40;;;;;;;-144.12;100.00;72078.50;5030247;28;20037;-68
2024/03/29 10:35:44;;;;;;;0.68;0.50;;;;;;;-144.12;100.00;72078.50;5041172;28;20037;-67
2024/03/29 10:38:10;;;;;;;1.10;0.63;;;;;;;-144.12;100.00;72078.50;5031044;28;20064;-68
2024/03/29 10:40:44;;;;;;;0.55;0.40;;;;;;;-144.12;100.00;72078.50;5043071;28;20041;-68
2024/03/29 10:43:14;;;;;;;0.30;0.25;;;;;;;-144.12;100.00;72078.50;5027409;28;20040;-68
2024/03/29 10:45:39;;;;;;;1.23;0.88;;;;;;;-144.12;100.00;72078.50;5034214;28;20109;-67
2024/03/29 10:48:09;;;;;;;0.38;0.38;;;;;;;-144.12;100.00;72078.50;5027692;28;20100;-68
2024/03/29 10:50:40;;;;;;;4.95;0.60;;;;;;;-144.12;100.00;72078.50;5030138;28;20663;-67
2024/03/29 10:53:07;;;;;;;1.30;0.70;;;;;;;-144.12;100.00;72078.50;5046596;28;20036;-67
2024/03/29 10:55:36;;;;;;;1.02;0.60;;;;;;;-144.12;100.00;72078.50;5028730;28;20092;-67
2024/03/29 10:58:04;;;;;;;1.15;0.65;;;;;;;-144.12;100.00;72078.50;5043683;28;20558;-67
2024/03/29 11:00:38;;;;;;;2.95;0.57;;;;;;;-144.12;100.00;72078.50;5026503;28;20404;-69
2024/03/29 11:03:19;;;;;;;0.32;0.32;;;;;;;-144.12;100.00;72078.50;5043037;28;20112;-68
2024/03/29 11:05:48;;;;;;;6.25;0.70;;;;;;;-144.12;100.00;72078.50;5029770;28;20057;-68
2024/03/29 11:08:21;;;;;;;3.30;0.80;;;;;;;-144.12;100.00;72078.50;5025981;28;20029;-69
2024/03/29 11:10:49;;;;;;;2.03;1.05;;;;;;;-144.12;100.00;72078.50;5025262;28;20049;-68
2024/03/29 11:13:27;;;;;;;0.75;0.30;;;;;;;-144.12;100.00;72078.50;5043446;28;20048;-68
2024/03/29 11:15:53;;;;;;;0.30;0.20;;;;;;;-144.12;100.00;72078.50;5044202;28;20048;-68
2024/03/29 11:18:20;;;;;;;0.93;0.60;;;;;;;-144.12;100.00;72078.50;5042633;28;20025;-68
2024/03/29 11:20:51;;;;;;;0.30;0.30;;;;;;;-144.12;100.00;72078.50;5025323;28;20041;-68